Hlavní strana
METAR-TAF:

METAR-TAF

Letiště :

Errachidia, Maroko

zeměpisná šířka: 31-56N, zeměpisná délka: 004-24W, výška: 1034 m

Aktuální stav počasí

Zpráva byla vytvořena před 45 minutami, v 21:00 UTC
Severní vítr 8 kt
Teplota 13°C
Vlhkost vzduchu 54%
Tlak 1014 hPa
Viditelnost 10 km a více
Skoro jasno ve výšce 2600 ft
Oblačno až skoro zataženo ve výšce 8000 ft

METAR: GMFK 282100Z 36008KT 9999 FEW026 BKN080 13/04 Q1014 NOSIG

Čas: 22:45 (21:45 UTC)

Předpověď počasí

Zpráva byla vytvořena před 4 hodinami a 45 minutami, v 17:00 UTC
Předpověď platná od 28 v 18 UTC do 01 v 24 UTC
Severní vítr 9 kt
Viditelnost 10 km a více
Skoro jasno ve výšce 2600 ft
Oblačno až skoro zataženo ve výšce 8000 ft
Pravděpodobnost 30%
od 28 v 20 UTC do 28 v 23 UTC
Polojasno ve výšce 2600 ft
Skoro jasno ve výšce 3300 ft, Vertikální cumulus.
Oblačno až skoro zataženo ve výšce 8000 ft

TAF: GMFK 281700Z 2818/0124 01009KT 9999 FEW026 BKN080 PROB30 2820/2823 SCT026 FEW033TCU BKN080

Stav a předpovědi počasí z více než 4 000 letišť (zprávy METAR a TAF).

Červené a žluté tečky na mapě představují dostupné meteorologické stanice.

Když kurzor umístíte na tečku, zobrazí se název stanice.

Pak kliknutím zobrazíte stav a předpověď počasí.

Chcete-li změnit mapu, kliknutím na zelené tlačítko se znaménkem +mapu přiblížíte, kliknutím na zelené tlačítko se znaménkem – mapu oddálíte a kliknutím na zelené šipky přejdete na sousední mapy.


METAR-TAF: